sensor_id;sensor_type;location;lat;lon;timestamp;P1;durP1;ratioP1;P2;durP2;ratioP2
48679;SDS011;34475;51.658;5.634;2022-09-14T00:00:00;0.8;;;0.8;;
48679;SDS011;34475;51.658;5.634;2022-09-14T00:01:16;0.8;;;0.8;;
48679;SDS011;34475;51.658;5.634;2022-09-14T00:02:00;0.8;;;0.8;;
48679;SDS011;34475;51.658;5.634;2022-09-14T00:03:00;0.8;;;0.8;;
48679;SDS011;34475;51.658;5.634;2022-09-14T00:04:03;0.8;;;0.8;;
48679;SDS011;34475;51.658;5.634;2022-09-14T00:05:00;0.8;;;0.8;;
48679;SDS011;34475;51.658;5.634;2022-09-14T00:06:02;0.5;;;0.5;;
48679;SDS011;34475;51.658;5.634;2022-09-14T00:07:00;0.5;;;0.5;;
48679;SDS011;34475;51.658;5.634;2022-09-14T00:08:00;0.5;;;0.5;;
48679;SDS011;34475;51.658;5.634;2022-09-14T00:09:01;0.5;;;0.5;;
48679;SDS011;34475;51.658;5.634;2022-09-14T00:10:00;0.5;;;0.5;;
48679;SDS011;34475;51.658;5.634;2022-09-14T00:11:04;0.5;;;0.5;;
48679;SDS011;34475;51.658;5.634;2022-09-14T00:12:00;0.5;;;0.5;;
48679;SDS011;34475;51.658;5.634;2022-09-14T00:13:00;0.5;;;0.5;;
48679;SDS011;34475;51.658;5.634;2022-09-14T00:14:01;0.5;;;0.5;;
48679;SDS011;34475;51.658;5.634;2022-09-14T00:15:00;0.5;;;0.5;;
48679;SDS011;34475;51.658;5.634;2022-09-14T00:16:02;0.5;;;0.5;;
48679;SDS011;34475;51.658;5.634;2022-09-14T00:17:00;0.5;;;0.5;;
48679;SDS011;34475;51.658;5.634;2022-09-14T00:18:00;0.5;;;0.5;;
48679;SDS011;34475;51.658;5.634;2022-09-14T00:19:06;0.5;;;0.5;;
48679;SDS011;34475;51.658;5.634;2022-09-14T00:20:01;0.5;;;0.5;;
48679;SDS011;34475;51.658;5.634;2022-09-14T00:21:01;0.5;;;0.5;;
48679;SDS011;34475;51.658;5.634;2022-09-14T00:22:00;0.5;;;0.5;;
48679;SDS011;34475;51.658;5.634;2022-09-14T00:23:00;0.5;;;0.5;;
48679;SDS011;34475;51.658;5.634;2022-09-14T00:24:00;0.5;;;0.5;;
48679;SDS011;34475;51.658;5.634;2022-09-14T00:25:00;0.5;;;0.5;;
48679;SDS011;34475;51.658;5.634;2022-09-14T00:26:03;0.2;;;0.2;;
48679;SDS011;34475;51.658;5.634;2022-09-14T00:27:01;0.2;;;0.2;;
48679;SDS011;34475;51.658;5.634;2022-09-14T00:28:00;0.2;;;0.2;;
48679;SDS011;34475;51.658;5.634;2022-09-14T00:29:03;0.2;;;0.2;;
48679;SDS011;34475;51.658;5.634;2022-09-14T00:30:00;0.2;;;0.2;;
48679;SDS011;34475;51.658;5.634;2022-09-14T00:31:02;0.2;;;0.2;;
48679;SDS011;34475;51.658;5.634;2022-09-14T00:32:00;0.2;;;0.2;;
48679;SDS011;34475;51.658;5.634;2022-09-14T00:33:00;0.2;;;0.2;;
48679;SDS011;34475;51.658;5.634;2022-09-14T00:34:02;0.2;;;0.2;;
48679;SDS011;34475;51.658;5.634;2022-09-14T00:35:00;0.2;;;0.2;;
48679;SDS011;34475;51.658;5.634;2022-09-14T00:36:05;0.2;;;0.2;;
48679;SDS011;34475;51.658;5.634;2022-09-14T00:37:00;0.2;;;0.2;;
48679;SDS011;34475;51.658;5.634;2022-09-14T00:38:00;0.2;;;0.2;;
48679;SDS011;34475;51.658;5.634;2022-09-14T00:39:00;0.2;;;0.2;;
48679;SDS011;34475;51.658;5.634;2022-09-14T00:40:00;0.2;;;0.2;;
48679;SDS011;34475;51.658;5.634;2022-09-14T00:41:04;0.2;;;0.2;;
48679;SDS011;34475;51.658;5.634;2022-09-14T00:42:00;0.2;;;0.2;;
48679;SDS011;34475;51.658;5.634;2022-09-14T00:43:00;0.2;;;0.2;;
48679;SDS011;34475;51.658;5.634;2022-09-14T00:44:03;0.2;;;0.2;;
48679;SDS011;34475;51.658;5.634;2022-09-14T00:45:02;0.2;;;0.2;;
48679;SDS011;34475;51.658;5.634;2022-09-14T00:46:01;0.3;;;0.3;;
48679;SDS011;34475;51.658;5.634;2022-09-14T00:47:01;0.3;;;0.3;;
48679;SDS011;34475;51.658;5.634;2022-09-14T00:48:00;0.3;;;0.3;;
48679;SDS011;34475;51.658;5.634;2022-09-14T00:49:02;0.3;;;0.3;;
48679;SDS011;34475;51.658;5.634;2022-09-14T00:50:02;0.3;;;0.3;;
48679;SDS011;34475;51.658;5.634;2022-09-14T00:51:00;0.3;;;0.3;;
48679;SDS011;34475;51.658;5.634;2022-09-14T00:52:01;0.3;;;0.3;;
48679;SDS011;34475;51.658;5.634;2022-09-14T00:53:00;0.3;;;0.3;;
48679;SDS011;34475;51.658;5.634;2022-09-14T00:54:01;0.3;;;0.3;;
48679;SDS011;34475;51.658;5.634;2022-09-14T00:55:04;0.3;;;0.3;;
48679;SDS011;34475;51.658;5.634;2022-09-14T00:56:00;0.3;;;0.3;;
48679;SDS011;34475;51.658;5.634;2022-09-14T00:57:01;0.3;;;0.3;;
48679;SDS011;34475;51.658;5.634;2022-09-14T00:58:00;0.3;;;0.3;;
48679;SDS011;34475;51.658;5.634;2022-09-14T00:59:05;0.3;;;0.3;;
48679;SDS011;34475;51.658;5.634;2022-09-14T01:00:00;0.3;;;0.3;;
48679;SDS011;34475;51.658;5.634;2022-09-14T01:01:01;0.3;;;0.3;;
48679;SDS011;34475;51.658;5.634;2022-09-14T01:02:00;0.3;;;0.3;;
48679;SDS011;34475;51.658;5.634;2022-09-14T01:03:00;0.3;;;0.3;;
48679;SDS011;34475;51.658;5.634;2022-09-14T01:04:00;0.3;;;0.3;;
48679;SDS011;34475;51.658;5.634;2022-09-14T01:05:00;0.3;;;0.3;;
48679;SDS011;34475;51.658;5.634;2022-09-14T01:08:07;1.2;;;0.6;;
48679;SDS011;34475;51.658;5.634;2022-09-14T01:09:19;1.2;;;0.6;;
48679;SDS011;34475;51.658;5.634;2022-09-14T01:10:07;1.2;;;0.6;;
48679;SDS011;34475;51.658;5.634;2022-09-14T01:12:13;1.2;;;0.6;;
48679;SDS011;34475;51.658;5.634;2022-09-14T01:14:11;1.2;;;0.6;;
48679;SDS011;34475;51.658;5.634;2022-09-14T01:15:04;1.2;;;0.6;;
48679;SDS011;34475;51.658;5.634;2022-09-14T01:16:29;1.2;;;0.6;;
48679;SDS011;34475;51.658;5.634;2022-09-14T01:17:08;1.2;;;0.6;;
48679;SDS011;34475;51.658;5.634;2022-09-14T01:18:20;1.2;;;0.6;;
48679;SDS011;34475;51.658;5.634;2022-09-14T01:19:04;1.2;;;0.6;;
48679;SDS011;34475;51.658;5.634;2022-09-14T01:20:14;1.2;;;0.6;;
48679;SDS011;34475;51.658;5.634;2022-09-14T01:21:04;1.2;;;0.6;;
48679;SDS011;34475;51.658;5.634;2022-09-14T01:22:10;1.2;;;0.6;;
48679;SDS011;34475;51.658;5.634;2022-09-14T01:25:17;1.2;;;0.6;;
48679;SDS011;34475;51.658;5.634;2022-09-14T01:28:02;0.5;;;0.5;;
48679;SDS011;34475;51.658;5.634;2022-09-14T01:31:03;0.5;;;0.5;;
48679;SDS011;34475;51.658;5.634;2022-09-14T01:32:04;0.5;;;0.5;;
48679;SDS011;34475;51.658;5.634;2022-09-14T01:33:08;0.5;;;0.5;;
48679;SDS011;34475;51.658;5.634;2022-09-14T01:35:04;0.5;;;0.5;;
48679;SDS011;34475;51.658;5.634;2022-09-14T01:36:01;0.5;;;0.5;;
48679;SDS011;34475;51.658;5.634;2022-09-14T01:37:05;0.5;;;0.5;;
48679;SDS011;34475;51.658;5.634;2022-09-14T01:38:08;0.5;;;0.5;;
48679;SDS011;34475;51.658;5.634;2022-09-14T01:39:01;0.5;;;0.5;;
48679;SDS011;34475;51.658;5.634;2022-09-14T01:40:06;0.5;;;0.5;;
48679;SDS011;34475;51.658;5.634;2022-09-14T01:41:03;0.5;;;0.5;;
48679;SDS011;34475;51.658;5.634;2022-09-14T01:42:01;0.5;;;0.5;;
48679;SDS011;34475;51.658;5.634;2022-09-14T01:43:07;0.5;;;0.5;;
48679;SDS011;34475;51.658;5.634;2022-09-14T01:44:12;0.5;;;0.5;;
48679;SDS011;34475;51.658;5.634;2022-09-14T01:45:02;0.5;;;0.5;;
48679;SDS011;34475;51.658;5.634;2022-09-14T01:46:06;0.3;;;0.3;;
48679;SDS011;34475;51.658;5.634;2022-09-14T01:47:13;0.3;;;0.3;;
48679;SDS011;34475;51.658;5.634;2022-09-14T01:48:03;0.3;;;0.3;;
48679;SDS011;34475;51.658;5.634;2022-09-14T01:50:06;0.3;;;0.3;;
48679;SDS011;34475;51.658;5.634;2022-09-14T01:51:03;0.3;;;0.3;;
48679;SDS011;34475;51.658;5.634;2022-09-14T01:52:04;0.3;;;0.3;;
48679;SDS011;34475;51.658;5.634;2022-09-14T01:53:06;0.3;;;0.3;;
48679;SDS011;34475;51.658;5.634;2022-09-14T01:54:05;0.3;;;0.3;;
48679;SDS011;34475;51.658;5.634;2022-09-14T01:55:05;0.3;;;0.3;;
48679;SDS011;34475;51.658;5.634;2022-09-14T01:56:07;0.3;;;0.3;;
48679;SDS011;34475;51.658;5.634;2022-09-14T01:57:06;0.3;;;0.3;;
48679;SDS011;34475;51.658;5.634;2022-09-14T01:58:05;0.3;;;0.3;;
48679;SDS011;34475;51.658;5.634;2022-09-14T01:59:19;0.3;;;0.3;;
48679;SDS011;34475;51.658;5.634;2022-09-14T02:00:05;0.3;;;0.3;;
48679;SDS011;34475;51.658;5.634;2022-09-14T02:01:02;0.3;;;0.3;;
48679;SDS011;34475;51.658;5.634;2022-09-14T02:02:04;0.3;;;0.3;;
48679;SDS011;34475;51.658;5.634;2022-09-14T02:03:07;0.3;;;0.3;;
48679;SDS011;34475;51.658;5.634;2022-09-14T02:04:04;0.3;;;0.3;;
48679;SDS011;34475;51.658;5.634;2022-09-14T02:06:13;0.4;;;0.4;;
48679;SDS011;34475;51.658;5.634;2022-09-14T02:07:00;0.4;;;0.4;;
48679;SDS011;34475;51.658;5.634;2022-09-14T02:08:00;0.4;;;0.4;;
48679;SDS011;34475;51.658;5.634;2022-09-14T02:09:01;0.4;;;0.4;;
48679;SDS011;34475;51.658;5.634;2022-09-14T02:10:01;0.4;;;0.4;;
48679;SDS011;34475;51.658;5.634;2022-09-14T02:11:00;0.4;;;0.4;;
48679;SDS011;34475;51.658;5.634;2022-09-14T02:12:00;0.4;;;0.4;;
48679;SDS011;34475;51.658;5.634;2022-09-14T02:13:00;0.4;;;0.4;;
48679;SDS011;34475;51.658;5.634;2022-09-14T02:14:00;0.4;;;0.4;;
48679;SDS011;34475;51.658;5.634;2022-09-14T02:15:00;0.4;;;0.4;;
48679;SDS011;34475;51.658;5.634;2022-09-14T02:16:00;0.4;;;0.4;;
48679;SDS011;34475;51.658;5.634;2022-09-14T02:17:00;0.4;;;0.4;;
48679;SDS011;34475;51.658;5.634;2022-09-14T02:18:00;0.4;;;0.4;;
48679;SDS011;34475;51.658;5.634;2022-09-14T02:19:00;0.4;;;0.4;;
48679;SDS011;34475;51.658;5.634;2022-09-14T02:20:03;0.4;;;0.4;;
48679;SDS011;34475;51.658;5.634;2022-09-14T02:21:06;0.4;;;0.4;;
48679;SDS011;34475;51.658;5.634;2022-09-14T02:22:00;0.4;;;0.4;;
48679;SDS011;34475;51.658;5.634;2022-09-14T02:23:00;0.4;;;0.4;;
48679;SDS011;34475;51.658;5.634;2022-09-14T02:24:00;0.4;;;0.4;;
48679;SDS011;34475;51.658;5.634;2022-09-14T02:25:00;0.4;;;0.4;;
48679;SDS011;34475;51.658;5.634;2022-09-14T02:26:00;0.4;;;0.4;;
48679;SDS011;34475;51.658;5.634;2022-09-14T02:27:01;0.4;;;0.4;;
48679;SDS011;34475;51.658;5.634;2022-09-14T02:28:00;0.4;;;0.4;;
48679;SDS011;34475;51.658;5.634;2022-09-14T02:29:00;0.4;;;0.4;;
48679;SDS011;34475;51.658;5.634;2022-09-14T02:30:00;0.4;;;0.4;;
48679;SDS011;34475;51.658;5.634;2022-09-14T02:31:08;0.4;;;0.4;;
48679;SDS011;34475;51.658;5.634;2022-09-14T02:32:09;0.4;;;0.4;;
48679;SDS011;34475;51.658;5.634;2022-09-14T02:34:12;0.4;;;0.4;;
48679;SDS011;34475;51.658;5.634;2022-09-14T02:36:06;0.4;;;0.4;;
48679;SDS011;34475;51.658;5.634;2022-09-14T02:37:12;0.4;;;0.4;;
48679;SDS011;34475;51.658;5.634;2022-09-14T02:38:09;0.4;;;0.4;;
48679;SDS011;34475;51.658;5.634;2022-09-14T02:40:08;0.4;;;0.4;;
48679;SDS011;34475;51.658;5.634;2022-09-14T02:42:10;0.4;;;0.4;;
48679;SDS011;34475;51.658;5.634;2022-09-14T02:43:15;0.4;;;0.4;;
48679;SDS011;34475;51.658;5.634;2022-09-14T02:46:10;0.6;;;0.6;;
48679;SDS011;34475;51.658;5.634;2022-09-14T02:47:47;0.6;;;0.6;;
48679;SDS011;34475;51.658;5.634;2022-09-14T02:49:05;0.6;;;0.6;;
48679;SDS011;34475;51.658;5.634;2022-09-14T02:50:11;0.6;;;0.6;;
48679;SDS011;34475;51.658;5.634;2022-09-14T02:51:16;0.6;;;0.6;;
48679;SDS011;34475;51.658;5.634;2022-09-14T02:52:18;0.6;;;0.6;;
48679;SDS011;34475;51.658;5.634;2022-09-14T02:53:08;0.6;;;0.6;;
48679;SDS011;34475;51.658;5.634;2022-09-14T02:55:05;0.6;;;0.6;;
48679;SDS011;34475;51.658;5.634;2022-09-14T02:56:04;0.6;;;0.6;;
48679;SDS011;34475;51.658;5.634;2022-09-14T02:57:01;0.6;;;0.6;;
48679;SDS011;34475;51.658;5.634;2022-09-14T02:58:10;0.6;;;0.6;;
48679;SDS011;34475;51.658;5.634;2022-09-14T02:59:00;0.6;;;0.6;;
48679;SDS011;34475;51.658;5.634;2022-09-14T03:00:00;0.6;;;0.6;;
48679;SDS011;34475;51.658;5.634;2022-09-14T03:01:00;0.6;;;0.6;;
48679;SDS011;34475;51.658;5.634;2022-09-14T03:02:00;0.6;;;0.6;;
48679;SDS011;34475;51.658;5.634;2022-09-14T03:03:00;0.6;;;0.6;;
48679;SDS011;34475;51.658;5.634;2022-09-14T03:04:00;0.6;;;0.6;;
48679;SDS011;34475;51.658;5.634;2022-09-14T03:05:00;0.6;;;0.6;;
48679;SDS011;34475;51.658;5.634;2022-09-14T03:06:00;0.6;;;0.6;;
48679;SDS011;34475;51.658;5.634;2022-09-14T03:07:00;0.6;;;0.6;;
48679;SDS011;34475;51.658;5.634;2022-09-14T03:08:00;0.6;;;0.6;;
48679;SDS011;34475;51.658;5.634;2022-09-14T03:09:00;0.6;;;0.6;;
48679;SDS011;34475;51.658;5.634;2022-09-14T03:10:00;0.6;;;0.6;;
48679;SDS011;34475;51.658;5.634;2022-09-14T03:11:00;0.6;;;0.6;;
48679;SDS011;34475;51.658;5.634;2022-09-14T03:12:00;0.6;;;0.6;;
48679;SDS011;34475;51.658;5.634;2022-09-14T03:13:00;0.6;;;0.6;;
48679;SDS011;34475;51.658;5.634;2022-09-14T03:14:00;0.6;;;0.6;;
48679;SDS011;34475;51.658;5.634;2022-09-14T03:15:00;0.6;;;0.6;;
48679;SDS011;34475;51.658;5.634;2022-09-14T03:16:05;0.6;;;0.6;;
48679;SDS011;34475;51.658;5.634;2022-09-14T03:17:00;0.6;;;0.6;;
48679;SDS011;34475;51.658;5.634;2022-09-14T03:18:00;0.6;;;0.6;;
48679;SDS011;34475;51.658;5.634;2022-09-14T03:19:00;0.6;;;0.6;;
48679;SDS011;34475;51.658;5.634;2022-09-14T03:20:00;0.6;;;0.6;;
48679;SDS011;34475;51.658;5.634;2022-09-14T03:21:05;0.6;;;0.6;;
48679;SDS011;34475;51.658;5.634;2022-09-14T03:22:00;0.6;;;0.6;;
48679;SDS011;34475;51.658;5.634;2022-09-14T03:23:01;0.6;;;0.6;;
48679;SDS011;34475;51.658;5.634;2022-09-14T03:24:00;0.6;;;0.6;;
48679;SDS011;34475;51.658;5.634;2022-09-14T03:25:00;0.4;;;0.4;;
48679;SDS011;34475;51.658;5.634;2022-09-14T03:26:00;0.4;;;0.4;;
48679;SDS011;34475;51.658;5.634;2022-09-14T03:27:00;0.4;;;0.4;;
48679;SDS011;34475;51.658;5.634;2022-09-14T03:28:00;0.4;;;0.4;;
48679;SDS011;34475;51.658;5.634;2022-09-14T03:29:00;0.4;;;0.4;;
48679;SDS011;34475;51.658;5.634;2022-09-14T03:30:00;0.4;;;0.4;;
48679;SDS011;34475;51.658;5.634;2022-09-14T03:31:00;0.4;;;0.4;;
48679;SDS011;34475;51.658;5.634;2022-09-14T03:32:00;0.4;;;0.4;;
48679;SDS011;34475;51.658;5.634;2022-09-14T03:33:00;0.4;;;0.4;;
48679;SDS011;34475;51.658;5.634;2022-09-14T03:34:01;0.4;;;0.4;;
48679;SDS011;34475;51.658;5.634;2022-09-14T03:35:01;0.4;;;0.4;;
48679;SDS011;34475;51.658;5.634;2022-09-14T03:36:07;0.4;;;0.4;;
48679;SDS011;34475;51.658;5.634;2022-09-14T03:37:00;0.4;;;0.4;;
48679;SDS011;34475;51.658;5.634;2022-09-14T03:38:02;0.4;;;0.4;;
48679;SDS011;34475;51.658;5.634;2022-09-14T03:39:00;0.4;;;0.4;;
48679;SDS011;34475;51.658;5.634;2022-09-14T03:40:00;0.4;;;0.4;;
48679;SDS011;34475;51.658;5.634;2022-09-14T03:41:00;0.4;;;0.4;;
48679;SDS011;34475;51.658;5.634;2022-09-14T03:42:00;0.4;;;0.4;;
48679;SDS011;34475;51.658;5.634;2022-09-14T03:43:00;0.4;;;0.4;;
48679;SDS011;34475;51.658;5.634;2022-09-14T03:44:00;0.4;;;0.4;;
48679;SDS011;34475;51.658;5.634;2022-09-14T03:45:00;1.1;;;1.1;;
48679;SDS011;34475;51.658;5.634;2022-09-14T03:46:05;1.1;;;1.1;;
48679;SDS011;34475;51.658;5.634;2022-09-14T03:47:00;1.1;;;1.1;;
48679;SDS011;34475;51.658;5.634;2022-09-14T03:48:00;1.1;;;1.1;;
48679;SDS011;34475;51.658;5.634;2022-09-14T03:49:00;1.1;;;1.1;;
48679;SDS011;34475;51.658;5.634;2022-09-14T03:50:00;1.1;;;1.1;;
48679;SDS011;34475;51.658;5.634;2022-09-14T03:51:00;1.1;;;1.1;;
48679;SDS011;34475;51.658;5.634;2022-09-14T03:52:00;1.1;;;1.1;;
48679;SDS011;34475;51.658;5.634;2022-09-14T03:53:00;1.1;;;1.1;;
48679;SDS011;34475;51.658;5.634;2022-09-14T03:54:00;1.1;;;1.1;;
48679;SDS011;34475;51.658;5.634;2022-09-14T03:55:00;1.1;;;1.1;;
48679;SDS011;34475;51.658;5.634;2022-09-14T03:56:00;1.1;;;1.1;;
48679;SDS011;34475;51.658;5.634;2022-09-14T03:57:00;1.1;;;1.1;;
48679;SDS011;34475;51.658;5.634;2022-09-14T03:58:00;1.1;;;1.1;;
48679;SDS011;34475;51.658;5.634;2022-09-14T03:59:00;1.1;;;1.1;;
48679;SDS011;34475;51.658;5.634;2022-09-14T04:00:00;1.1;;;1.1;;
48679;SDS011;34475;51.658;5.634;2022-09-14T04:01:06;1.1;;;1.1;;
48679;SDS011;34475;51.658;5.634;2022-09-14T04:02:00;1.1;;;1.1;;
48679;SDS011;34475;51.658;5.634;2022-09-14T04:03:00;1.1;;;1.1;;
48679;SDS011;34475;51.658;5.634;2022-09-14T04:04:00;1.1;;;1.1;;
48679;SDS011;34475;51.658;5.634;2022-09-14T04:05:00;0.3;;;0.3;;
48679;SDS011;34475;51.658;5.634;2022-09-14T04:06:04;0.3;;;0.3;;
48679;SDS011;34475;51.658;5.634;2022-09-14T04:07:00;0.3;;;0.3;;
48679;SDS011;34475;51.658;5.634;2022-09-14T04:08:00;0.3;;;0.3;;
48679;SDS011;34475;51.658;5.634;2022-09-14T04:09:00;0.3;;;0.3;;
48679;SDS011;34475;51.658;5.634;2022-09-14T04:10:00;0.3;;;0.3;;
48679;SDS011;34475;51.658;5.634;2022-09-14T04:11:06;0.3;;;0.3;;
48679;SDS011;34475;51.658;5.634;2022-09-14T04:12:00;0.3;;;0.3;;
48679;SDS011;34475;51.658;5.634;2022-09-14T04:13:00;0.3;;;0.3;;
48679;SDS011;34475;51.658;5.634;2022-09-14T04:14:02;0.3;;;0.3;;
48679;SDS011;34475;51.658;5.634;2022-09-14T04:15:00;0.3;;;0.3;;
48679;SDS011;34475;51.658;5.634;2022-09-14T04:16:00;0.3;;;0.3;;
48679;SDS011;34475;51.658;5.634;2022-09-14T04:17:00;0.3;;;0.3;;
48679;SDS011;34475;51.658;5.634;2022-09-14T04:18:00;0.3;;;0.3;;
48679;SDS011;34475;51.658;5.634;2022-09-14T04:19:00;0.3;;;0.3;;
48679;SDS011;34475;51.658;5.634;2022-09-14T04:20:00;0.3;;;0.3;;
48679;SDS011;34475;51.658;5.634;2022-09-14T04:21:12;0.3;;;0.3;;
48679;SDS011;34475;51.658;5.634;2022-09-14T04:25:00;0.4;;;0.4;;
48679;SDS011;34475;51.658;5.634;2022-09-14T04:26:00;0.4;;;0.4;;
48679;SDS011;34475;51.658;5.634;2022-09-14T04:27:00;0.4;;;0.4;;
48679;SDS011;34475;51.658;5.634;2022-09-14T04:28:10;0.4;;;0.4;;
48679;SDS011;34475;51.658;5.634;2022-09-14T04:29:00;0.4;;;0.4;;
48679;SDS011;34475;51.658;5.634;2022-09-14T04:30:00;0.4;;;0.4;;
48679;SDS011;34475;51.658;5.634;2022-09-14T04:31:01;0.4;;;0.4;;
48679;SDS011;34475;51.658;5.634;2022-09-14T04:32:00;0.4;;;0.4;;
48679;SDS011;34475;51.658;5.634;2022-09-14T04:33:00;0.4;;;0.4;;
48679;SDS011;34475;51.658;5.634;2022-09-14T04:34:00;0.4;;;0.4;;
48679;SDS011;34475;51.658;5.634;2022-09-14T04:35:00;0.4;;;0.4;;
48679;SDS011;34475;51.658;5.634;2022-09-14T04:36:02;0.4;;;0.4;;
48679;SDS011;34475;51.658;5.634;2022-09-14T04:37:00;0.4;;;0.4;;
48679;SDS011;34475;51.658;5.634;2022-09-14T04:38:00;0.4;;;0.4;;
48679;SDS011;34475;51.658;5.634;2022-09-14T04:39:01;0.4;;;0.4;;
48679;SDS011;34475;51.658;5.634;2022-09-14T04:40:00;0.4;;;0.4;;
48679;SDS011;34475;51.658;5.634;2022-09-14T04:41:03;0.4;;;0.4;;
48679;SDS011;34475;51.658;5.634;2022-09-14T04:42:00;0.4;;;0.4;;
48679;SDS011;34475;51.658;5.634;2022-09-14T04:43:00;0.4;;;0.4;;
48679;SDS011;34475;51.658;5.634;2022-09-14T04:44:00;0.4;;;0.4;;
48679;SDS011;34475;51.658;5.634;2022-09-14T04:45:00;0.4;;;0.4;;
48679;SDS011;34475;51.658;5.634;2022-09-14T04:46:02;0.4;;;0.4;;
48679;SDS011;34475;51.658;5.634;2022-09-14T04:47:00;0.4;;;0.4;;
48679;SDS011;34475;51.658;5.634;2022-09-14T04:48:00;0.4;;;0.4;;
48679;SDS011;34475;51.658;5.634;2022-09-14T04:49:00;0.4;;;0.4;;
48679;SDS011;34475;51.658;5.634;2022-09-14T04:50:00;0.4;;;0.4;;
48679;SDS011;34475;51.658;5.634;2022-09-14T04:51:02;0.4;;;0.4;;
48679;SDS011;34475;51.658;5.634;2022-09-14T04:52:00;0.4;;;0.4;;
48679;SDS011;34475;51.658;5.634;2022-09-14T04:53:00;0.4;;;0.4;;
48679;SDS011;34475;51.658;5.634;2022-09-14T04:59:03;0.4;;;0.4;;
48679;SDS011;34475;51.658;5.634;2022-09-14T05:00:00;0.4;;;0.4;;
48679;SDS011;34475;51.658;5.634;2022-09-14T05:01:02;0.4;;;0.4;;
48679;SDS011;34475;51.658;5.634;2022-09-14T05:02:00;0.4;;;0.4;;
48679;SDS011;34475;51.658;5.634;2022-09-14T05:03:00;0.4;;;0.4;;
48679;SDS011;34475;51.658;5.634;2022-09-14T05:04:00;0.4;;;0.4;;
48679;SDS011;34475;51.658;5.634;2022-09-14T05:05:00;0.3;;;0.3;;
48679;SDS011;34475;51.658;5.634;2022-09-14T05:06:01;0.3;;;0.3;;
48679;SDS011;34475;51.658;5.634;2022-09-14T05:07:00;0.3;;;0.3;;
48679;SDS011;34475;51.658;5.634;2022-09-14T05:08:00;0.3;;;0.3;;
48679;SDS011;34475;51.658;5.634;2022-09-14T05:09:02;0.3;;;0.3;;
48679;SDS011;34475;51.658;5.634;2022-09-14T05:10:00;0.3;;;0.3;;
48679;SDS011;34475;51.658;5.634;2022-09-14T05:11:00;0.3;;;0.3;;
48679;SDS011;34475;51.658;5.634;2022-09-14T05:12:00;0.3;;;0.3;;
48679;SDS011;34475;51.658;5.634;2022-09-14T05:13:00;0.3;;;0.3;;
48679;SDS011;34475;51.658;5.634;2022-09-14T05:14:00;0.3;;;0.3;;
48679;SDS011;34475;51.658;5.634;2022-09-14T05:15:00;0.3;;;0.3;;
48679;SDS011;34475;51.658;5.634;2022-09-14T05:16:05;0.3;;;0.3;;
48679;SDS011;34475;51.658;5.634;2022-09-14T05:17:01;0.3;;;0.3;;
48679;SDS011;34475;51.658;5.634;2022-09-14T05:18:01;0.3;;;0.3;;
48679;SDS011;34475;51.658;5.634;2022-09-14T05:19:03;0.3;;;0.3;;
48679;SDS011;34475;51.658;5.634;2022-09-14T05:20:01;0.3;;;0.3;;
48679;SDS011;34475;51.658;5.634;2022-09-14T05:21:08;0.3;;;0.3;;
48679;SDS011;34475;51.658;5.634;2022-09-14T05:22:00;0.3;;;0.3;;
48679;SDS011;34475;51.658;5.634;2022-09-14T05:23:00;0.3;;;0.3;;
48679;SDS011;34475;51.658;5.634;2022-09-14T05:24:03;0.3;;;0.3;;
48679;SDS011;34475;51.658;5.634;2022-09-14T05:25:00;0.3;;;0.3;;
48679;SDS011;34475;51.658;5.634;2022-09-14T05:26:00;0.3;;;0.3;;
48679;SDS011;34475;51.658;5.634;2022-09-14T05:27:02;0.3;;;0.3;;
48679;SDS011;34475;51.658;5.634;2022-09-14T05:28:00;0.3;;;0.3;;
48679;SDS011;34475;51.658;5.634;2022-09-14T05:29:00;0.3;;;0.3;;
48679;SDS011;34475;51.658;5.634;2022-09-14T05:30:00;0.3;;;0.3;;
48679;SDS011;34475;51.658;5.634;2022-09-14T05:31:05;0.3;;;0.3;;
48679;SDS011;34475;51.658;5.634;2022-09-14T05:32:00;0.3;;;0.3;;
48679;SDS011;34475;51.658;5.634;2022-09-14T05:33:00;0.3;;;0.3;;
48679;SDS011;34475;51.658;5.634;2022-09-14T05:34:00;0.3;;;0.3;;
48679;SDS011;34475;51.658;5.634;2022-09-14T05:35:00;0.3;;;0.3;;
48679;SDS011;34475;51.658;5.634;2022-09-14T05:36:01;0.3;;;0.3;;
48679;SDS011;34475;51.658;5.634;2022-09-14T05:37:00;0.3;;;0.3;;
48679;SDS011;34475;51.658;5.634;2022-09-14T05:38:00;0.3;;;0.3;;
48679;SDS011;34475;51.658;5.634;2022-09-14T05:39:00;0.3;;;0.3;;
48679;SDS011;34475;51.658;5.634;2022-09-14T05:40:00;0.3;;;0.3;;
48679;SDS011;34475;51.658;5.634;2022-09-14T05:41:00;0.3;;;0.3;;
48679;SDS011;34475;51.658;5.634;2022-09-14T05:42:00;0.3;;;0.3;;
48679;SDS011;34475;51.658;5.634;2022-09-14T05:43:00;0.3;;;0.3;;
48679;SDS011;34475;51.658;5.634;2022-09-14T05:44:00;0.3;;;0.3;;
48679;SDS011;34475;51.658;5.634;2022-09-14T05:45:00;0.4;;;0.4;;
48679;SDS011;34475;51.658;5.634;2022-09-14T05:46:02;0.4;;;0.4;;
48679;SDS011;34475;51.658;5.634;2022-09-14T05:47:00;0.4;;;0.4;;
48679;SDS011;34475;51.658;5.634;2022-09-14T05:48:01;0.4;;;0.4;;
48679;SDS011;34475;51.658;5.634;2022-09-14T05:49:00;0.4;;;0.4;;
48679;SDS011;34475;51.658;5.634;2022-09-14T05:50:00;0.4;;;0.4;;
48679;SDS011;34475;51.658;5.634;2022-09-14T05:51:01;0.4;;;0.4;;
48679;SDS011;34475;51.658;5.634;2022-09-14T05:52:00;0.4;;;0.4;;
48679;SDS011;34475;51.658;5.634;2022-09-14T05:53:00;0.4;;;0.4;;
48679;SDS011;34475;51.658;5.634;2022-09-14T05:54:00;0.4;;;0.4;;
48679;SDS011;34475;51.658;5.634;2022-09-14T05:55:00;0.4;;;0.4;;
48679;SDS011;34475;51.658;5.634;2022-09-14T05:56:03;0.4;;;0.4;;
48679;SDS011;34475;51.658;5.634;2022-09-14T05:57:00;0.4;;;0.4;;
48679;SDS011;34475;51.658;5.634;2022-09-14T05:58:00;0.4;;;0.4;;
48679;SDS011;34475;51.658;5.634;2022-09-14T05:59:00;0.4;;;0.4;;
48679;SDS011;34475;51.658;5.634;2022-09-14T06:00:00;0.4;;;0.4;;
48679;SDS011;34475;51.658;5.634;2022-09-14T06:01:08;0.4;;;0.4;;
48679;SDS011;34475;51.658;5.634;2022-09-14T06:02:00;0.4;;;0.4;;
48679;SDS011;34475;51.658;5.634;2022-09-14T06:03:00;0.4;;;0.4;;
48679;SDS011;34475;51.658;5.634;2022-09-14T06:04:01;0.4;;;0.4;;
48679;SDS011;34475;51.658;5.634;2022-09-14T06:05:00;0.5;;;0.5;;
48679;SDS011;34475;51.658;5.634;2022-09-14T06:06:00;0.5;;;0.5;;
48679;SDS011;34475;51.658;5.634;2022-09-14T06:07:10;0.5;;;0.5;;
48679;SDS011;34475;51.658;5.634;2022-09-14T06:08:00;0.5;;;0.5;;
48679;SDS011;34475;51.658;5.634;2022-09-14T06:09:00;0.5;;;0.5;;
48679;SDS011;34475;51.658;5.634;2022-09-14T06:10:00;0.5;;;0.5;;
48679;SDS011;34475;51.658;5.634;2022-09-14T06:11:03;0.5;;;0.5;;
48679;SDS011;34475;51.658;5.634;2022-09-14T06:12:00;0.5;;;0.5;;
48679;SDS011;34475;51.658;5.634;2022-09-14T06:13:00;0.5;;;0.5;;
48679;SDS011;34475;51.658;5.634;2022-09-14T06:14:00;0.5;;;0.5;;
48679;SDS011;34475;51.658;5.634;2022-09-14T06:15:00;0.5;;;0.5;;
48679;SDS011;34475;51.658;5.634;2022-09-14T06:16:01;0.5;;;0.5;;
48679;SDS011;34475;51.658;5.634;2022-09-14T06:17:00;0.5;;;0.5;;
48679;SDS011;34475;51.658;5.634;2022-09-14T06:18:00;0.5;;;0.5;;
48679;SDS011;34475;51.658;5.634;2022-09-14T06:19:00;0.5;;;0.5;;
48679;SDS011;34475;51.658;5.634;2022-09-14T06:20:06;0.5;;;0.5;;
48679;SDS011;34475;51.658;5.634;2022-09-14T06:21:00;0.5;;;0.5;;
48679;SDS011;34475;51.658;5.634;2022-09-14T06:22:00;0.5;;;0.5;;
48679;SDS011;34475;51.658;5.634;2022-09-14T06:23:00;0.5;;;0.5;;
48679;SDS011;34475;51.658;5.634;2022-09-14T06:24:00;0.5;;;0.5;;
48679;SDS011;34475;51.658;5.634;2022-09-14T06:25:00;0.5;;;0.5;;
48679;SDS011;34475;51.658;5.634;2022-09-14T06:26:03;0.5;;;0.5;;
48679;SDS011;34475;51.658;5.634;2022-09-14T06:27:00;0.5;;;0.5;;
48679;SDS011;34475;51.658;5.634;2022-09-14T06:28:00;0.5;;;0.5;;
48679;SDS011;34475;51.658;5.634;2022-09-14T06:29:00;0.5;;;0.5;;
48679;SDS011;34475;51.658;5.634;2022-09-14T06:30:00;0.5;;;0.5;;
48679;SDS011;34475;51.658;5.634;2022-09-14T06:31:02;0.5;;;0.5;;
48679;SDS011;34475;51.658;5.634;2022-09-14T06:32:00;0.5;;;0.5;;
48679;SDS011;34475;51.658;5.634;2022-09-14T06:33:00;0.5;;;0.5;;
48679;SDS011;34475;51.658;5.634;2022-09-14T06:34:00;0.5;;;0.5;;
48679;SDS011;34475;51.658;5.634;2022-09-14T06:35:00;0.5;;;0.5;;
48679;SDS011;34475;51.658;5.634;2022-09-14T06:36:04;0.5;;;0.5;;
48679;SDS011;34475;51.658;5.634;2022-09-14T06:37:00;0.5;;;0.5;;
48679;SDS011;34475;51.658;5.634;2022-09-14T06:38:00;0.5;;;0.5;;
48679;SDS011;34475;51.658;5.634;2022-09-14T06:39:00;0.5;;;0.5;;
48679;SDS011;34475;51.658;5.634;2022-09-14T06:40:00;0.5;;;0.5;;
48679;SDS011;34475;51.658;5.634;2022-09-14T06:41:02;0.5;;;0.5;;